Altha, FL (32421)

4:59 AM CDT on August 04, 2015 (GMT -0500)
Blountstown Middle School WeatherSTEM | | Change Station
CLOSE
Current Station
Personal Weather Station
Location: Blountstown, FL
Elevation: 72 ft
Nearby Weather Stations

Elev 72 ft 30.45 °N, 85.05 °W | Updated 5 minutes ago

Partly Cloudy
Partly Cloudy
77.9 °F
Feels Like 80 °F
N
0.0
Wind Variable Wind from SW
Gusts 1.0 mph

Today
High -- | Low -- °F
--% Chance of Precip.
Yesterday
High -- | Low -- °F
Precip. -- in
6:00 AM 7:32 PM
Waning Gibbous, 79% visible
Pressure 29.93 in
Visibility 10.0 miles
Clouds Overcast 11000 ft
Heat Index 80 °F
Dew Point 77 °F
Humidity 97%
Rainfall 0.35 in
Snow Depth Not available.
UV 0.0 out of 12
Pollen 3.70 out of 12
Air Quality Not available.
Flu Activity Not available.
METAR KMAI 040953Z AUTO 00000KT 10SM OVC110 26/25 A2993 RMK AO2 SLP134 T02610250

More Conditions Fewer Conditions

Pressure 29.93 in
Visibility 10.0 miles
Clouds Overcast 11000 ft
Heat Index 80 °F
Dew Point 77 °F
Humidity 97%
Rainfall 0.35 in
Snow Depth Not available.
UV 0.0 out of 12
Pollen 3.70 out of 12
Air Quality Not available.
Flu Activity Not available.
METAR KMAI 040953Z AUTO 00000KT 10SM OVC110 26/25 A2993 RMK AO2 SLP134 T02610250

More Conditions Fewer Conditions

10-Day Weather Forecast

×

Almanac

Astronomy

Aug. 04, 2015 Rise Set
Actual Time
Civil Twilight
Nautical Twilight
Astronomical Twilight
Moon
Length of Visible Light
Length of Day
Tomorrow will be .
, % of the Moon is Illuminated

Today's Extremes

State Highs State Lows

Community

WunderPhotos

Upload Photos

1,843,880 photos uploaded!

WunderBlogs® & News

Nearby

Air Quality

  Air Quality AQ Index Pollutant
Not available.

Snow Depth

Station Depth Elevation

Earthquake Activity

City Distance Mag. Time & Date
Minimum magnitude displayed is 2.5.

Coastal Water Temperatures

Place Temperature

Stations

Nearby Weather Stations

Station Location Temp. Windchill Dew Point Humidity Wind Precip. Elev Updated Type